Derby Field
KLOL : now visible

Airfield :











YOU CAN JOIN US ON...

 
LOGIN :

Register | Disclaimer

   EN    FR    IT 

 









Legend :    VFR   Marginal VFR   IFR   Intensive IFR   Very Intensive IFR
Visi :
Ceiling :
>= 8 km
>= 3000ft
5 to 8 km
1000 to 3000 ft
1500m to 5 km
500 to 1000 ft
800 to 1500m
200 to 500 ft
< 800m
< 200 ft
Symbols :   Thunderstorms  Fog  Heavy snow  Heavy precipitations  Wind > 20 kt






- Airport Elevation : 3904 ft


KLOL - Derby Field

CURRENT METAR :
  • 041653Z AUTO 06006KT 10SM CLR 29/02 A3007 RMK AO2 SLP137 T02890022

EXPIRED METARs :
  • 041553Z AUTO 02006KT 10SM CLR 26/03 A3008 RMK AO2 SLP143 T02610033
  • 041453Z AUTO 00000KT 10SM CLR 21/03 A3008 RMK AO2 SLP143 T02060028 52007

TAF N/A
KZOA FIR / North America



MET'MAP, your aeronautical weather chart ! - Copyright ORBIFLY December 2007 - Disclaimer

ORBIFLY MET'MAP TEAM :

Programming & Development : Alexandra Zaïnal
Concept & original design : Baudouin d'Aumeries
Assistance for programming : Marc-Olivier Méhu
Technical & hardware support : Manuel Goepfert

Contact : metmap@orbifly.com




SOURCES & CREDITS :

   NOAA       Earth
Advisory